createdAt,value
2022-12-27T00:02:24.502Z,5.95
2022-12-27T00:04:54.022Z,5.90
2022-12-27T00:07:21.977Z,5.88
2022-12-27T00:09:50.156Z,5.87
2022-12-27T00:12:18.158Z,5.86
2022-12-27T00:14:46.321Z,5.84
2022-12-27T00:17:14.179Z,5.83
2022-12-27T00:19:43.717Z,5.78
2022-12-27T00:22:11.717Z,5.71
2022-12-27T00:24:40.529Z,5.69
2022-12-27T00:27:08.621Z,5.56
2022-12-27T00:29:36.813Z,5.62
2022-12-27T00:32:05.031Z,5.59
2022-12-27T00:34:33.319Z,5.61
2022-12-27T00:37:02.613Z,5.61
2022-12-27T00:39:30.834Z,5.60
2022-12-27T00:41:58.776Z,5.61
2022-12-27T00:44:26.925Z,5.64
2022-12-27T00:46:54.857Z,5.67
2022-12-27T00:49:23.222Z,5.71
2022-12-27T00:51:51.613Z,5.74
2022-12-27T00:54:21.159Z,5.73
2022-12-27T00:56:49.312Z,5.78
2022-12-27T00:59:17.590Z,5.79
2022-12-27T01:01:45.829Z,5.78
2022-12-27T01:04:15.647Z,5.85
2022-12-27T01:06:43.965Z,5.82
2022-12-27T01:09:12.184Z,5.83
2022-12-27T01:11:42.631Z,5.83
2022-12-27T01:14:10.979Z,5.66
2022-12-27T01:16:40.498Z,5.63
2022-12-27T01:19:08.709Z,5.48
2022-12-27T01:21:36.633Z,5.39
2022-12-27T01:24:07.014Z,5.39
2022-12-27T01:26:35.000Z,5.29
2022-12-27T01:29:04.559Z,5.27
2022-12-27T01:31:32.676Z,5.28
2022-12-27T01:34:01.402Z,5.19
2022-12-27T01:36:31.451Z,5.29
2022-12-27T01:39:00.810Z,5.34
2022-12-27T01:41:48.171Z,5.45
2022-12-27T01:44:56.226Z,5.47
2022-12-27T01:47:43.652Z,5.56
2022-12-27T01:50:17.628Z,5.55
2022-12-27T01:52:48.709Z,5.50
2022-12-27T01:55:21.840Z,5.47
2022-12-27T01:57:50.039Z,5.42
2022-12-27T02:00:20.246Z,5.37
2022-12-27T02:02:48.532Z,5.39
2022-12-27T02:05:18.669Z,5.33
2022-12-27T02:07:56.805Z,5.19
2022-12-27T02:10:25.164Z,5.25
2022-12-27T02:12:53.473Z,5.21
2022-12-27T02:15:22.991Z,5.21
2022-12-27T02:17:50.936Z,5.15
2022-12-27T02:20:21.480Z,5.09
2022-12-27T02:23:39.193Z,5.03
2022-12-27T02:26:37.041Z,5.18
2022-12-27T02:29:15.522Z,5.25
2022-12-27T02:31:49.224Z,5.25
2022-12-27T02:34:21.250Z,5.21
2022-12-27T02:36:53.079Z,5.29
2022-12-27T02:39:21.891Z,5.31
2022-12-27T02:42:07.586Z,5.20
2022-12-27T02:44:55.263Z,5.18
2022-12-27T02:47:43.070Z,5.15
2022-12-27T02:50:29.701Z,5.03
2022-12-27T02:53:07.927Z,4.90
2022-12-27T02:56:05.766Z,4.92
2022-12-27T02:58:39.798Z,4.97
2022-12-27T03:01:33.410Z,4.87
2022-12-27T03:04:13.588Z,4.78
2022-12-27T03:06:49.303Z,4.72
2022-12-27T03:09:50.676Z,4.77
2022-12-27T03:12:42.563Z,4.79
2022-12-27T03:15:41.244Z,4.71
2022-12-27T03:18:13.710Z,4.72
2022-12-27T03:21:00.859Z,4.73
2022-12-27T03:23:46.934Z,4.63
2022-12-27T03:26:16.362Z,4.60
2022-12-27T03:29:03.365Z,4.62
2022-12-27T03:31:52.238Z,4.47
2022-12-27T03:34:35.796Z,4.49
2022-12-27T03:37:23.765Z,4.53
2022-12-27T03:39:57.487Z,4.53
2022-12-27T03:42:45.910Z,4.68
2022-12-27T03:45:15.447Z,4.75
2022-12-27T03:47:47.579Z,4.77
2022-12-27T03:50:21.858Z,4.81
2022-12-27T03:52:53.426Z,4.88
2022-12-27T03:55:22.293Z,4.97
2022-12-27T03:57:50.599Z,5.08
2022-12-27T04:00:18.841Z,5.08
2022-12-27T04:02:47.099Z,4.90
2022-12-27T04:05:16.672Z,4.83
2022-12-27T04:08:03.800Z,4.91
2022-12-27T04:10:49.607Z,4.95
2022-12-27T04:13:35.322Z,4.99
2022-12-27T04:16:21.007Z,4.80
2022-12-27T04:19:06.685Z,4.85
2022-12-27T04:21:53.732Z,4.88
2022-12-27T04:24:39.538Z,4.90
2022-12-27T04:27:25.276Z,4.87
2022-12-27T04:30:11.246Z,4.69
2022-12-27T04:32:57.081Z,4.48
2022-12-27T04:35:25.242Z,4.58
2022-12-27T04:37:54.490Z,4.63
2022-12-27T04:40:40.503Z,4.69
2022-12-27T04:43:26.661Z,4.63
2022-12-27T04:46:13.610Z,4.56
2022-12-27T04:48:59.345Z,4.63
2022-12-27T04:51:45.050Z,4.62
2022-12-27T04:54:36.006Z,4.50
2022-12-27T04:57:04.337Z,4.49
2022-12-27T04:59:50.303Z,4.49
2022-12-27T05:02:19.604Z,4.50
2022-12-27T05:04:48.522Z,4.50
2022-12-27T05:07:34.410Z,4.49
2022-12-27T05:10:23.804Z,4.55
2022-12-27T05:13:21.074Z,4.63
2022-12-27T05:15:49.627Z,4.63
2022-12-27T05:18:17.852Z,4.64
2022-12-27T05:20:45.727Z,4.59
2022-12-27T05:23:31.598Z,4.65
2022-12-27T05:26:00.852Z,4.66
2022-12-27T05:28:29.077Z,4.72
2022-12-27T05:31:01.895Z,4.74
2022-12-27T05:33:34.009Z,4.74
2022-12-27T05:36:01.983Z,4.76
2022-12-27T05:38:30.106Z,4.78
2022-12-27T05:40:59.387Z,4.77
2022-12-27T05:43:29.570Z,4.71
2022-12-27T05:46:04.003Z,4.79
2022-12-27T05:48:32.277Z,4.73
2022-12-27T05:51:00.652Z,4.68
2022-12-27T05:53:28.804Z,4.57
2022-12-27T05:55:56.968Z,4.39
2022-12-27T05:58:25.730Z,4.37
2022-12-27T06:00:55.017Z,4.39
2022-12-27T06:03:23.376Z,4.33
2022-12-27T06:05:51.492Z,4.33
2022-12-27T06:08:19.714Z,4.38
2022-12-27T06:10:47.697Z,4.31
2022-12-27T06:13:15.944Z,4.33
2022-12-27T06:15:43.903Z,4.15
2022-12-27T06:18:13.445Z,4.12
2022-12-27T06:20:41.369Z,4.16
2022-12-27T06:23:09.524Z,4.10
2022-12-27T06:25:38.482Z,4.04
2022-12-27T06:28:06.664Z,4.09
2022-12-27T06:30:36.373Z,4.21
2022-12-27T06:33:04.985Z,4.25
2022-12-27T06:35:34.290Z,4.29
2022-12-27T06:38:02.584Z,4.35
2022-12-27T06:40:30.535Z,4.38
2022-12-27T06:42:58.715Z,4.38
2022-12-27T06:45:26.648Z,4.30
2022-12-27T06:47:54.927Z,4.26
2022-12-27T06:50:22.916Z,4.34
2022-12-27T06:52:54.093Z,4.41
2022-12-27T06:55:22.205Z,4.38
2022-12-27T06:57:51.499Z,4.34
2022-12-27T07:00:20.714Z,4.36
2022-12-27T07:02:49.332Z,4.22
2022-12-27T07:05:17.456Z,4.12
2022-12-27T07:07:45.642Z,4.00
2022-12-27T07:10:14.974Z,3.96
2022-12-27T07:12:43.423Z,3.90
2022-12-27T07:15:11.669Z,3.88
2022-12-27T07:17:39.898Z,3.90
2022-12-27T07:20:09.209Z,3.72
2022-12-27T07:22:37.455Z,3.79
2022-12-27T07:25:06.341Z,3.83
2022-12-27T07:27:36.187Z,3.77
2022-12-27T07:30:04.544Z,3.69
2022-12-27T07:32:33.039Z,3.67
2022-12-27T07:35:00.955Z,3.71
2022-12-27T07:37:29.366Z,3.77
2022-12-27T07:39:57.323Z,3.83
2022-12-27T07:42:25.541Z,3.96
2022-12-27T07:44:54.966Z,4.10
2022-12-27T07:47:23.160Z,4.21
2022-12-27T07:49:51.025Z,4.19
2022-12-27T07:52:19.167Z,4.21
2022-12-27T07:54:47.099Z,4.24
2022-12-27T07:57:15.257Z,4.27
2022-12-27T07:59:43.210Z,4.31
2022-12-27T08:02:13.726Z,4.44
2022-12-27T08:04:41.736Z,4.50
2022-12-27T08:07:13.549Z,4.64
2022-12-27T08:09:43.395Z,4.65
2022-12-27T08:12:13.385Z,4.70
2022-12-27T08:14:41.568Z,4.79
2022-12-27T08:17:16.473Z,4.81
2022-12-27T08:19:44.548Z,4.86
2022-12-27T08:22:12.676Z,4.77
2022-12-27T08:24:41.553Z,4.86
2022-12-27T08:27:09.893Z,4.94
2022-12-27T08:29:38.345Z,4.86
2022-12-27T08:32:06.612Z,4.98
2022-12-27T08:34:35.860Z,4.97
2022-12-27T08:37:04.094Z,5.14
2022-12-27T08:39:32.012Z,5.12
2022-12-27T08:42:00.180Z,5.16
2022-12-27T08:44:28.166Z,5.16
2022-12-27T08:46:56.428Z,5.16
2022-12-27T08:49:24.414Z,5.17
2022-12-27T08:51:54.032Z,5.18
2022-12-27T08:54:21.956Z,5.14
2022-12-27T08:56:50.224Z,5.16
2022-12-27T08:59:18.116Z,5.19
2022-12-27T09:01:46.414Z,5.18
2022-12-27T09:04:14.500Z,5.28
2022-12-27T09:06:42.779Z,5.23
2022-12-27T09:09:12.087Z,5.24
2022-12-27T09:11:40.409Z,5.32
2022-12-27T09:14:08.366Z,5.40
2022-12-27T09:16:36.649Z,5.39
2022-12-27T09:19:05.081Z,5.50
2022-12-27T09:21:34.886Z,5.55
2022-12-27T09:24:03.167Z,5.58
2022-12-27T09:26:32.940Z,5.72
2022-12-27T09:29:01.942Z,5.62
2022-12-27T09:31:33.171Z,5.60
2022-12-27T09:34:01.119Z,5.53
2022-12-27T09:36:30.596Z,5.67
2022-12-27T09:38:59.235Z,5.68
2022-12-27T09:44:30.189Z,5.80
2022-12-27T09:47:02.238Z,5.59
2022-12-27T09:49:32.984Z,5.75
2022-12-27T09:52:04.622Z,5.78
2022-12-27T09:54:37.350Z,5.91
2022-12-27T09:57:20.836Z,5.85
2022-12-27T09:59:50.783Z,5.89
2022-12-27T10:02:23.018Z,5.86
2022-12-27T10:07:46.698Z,6.05
2022-12-27T10:10:20.030Z,6.18
2022-12-27T10:13:04.367Z,6.34
2022-12-27T10:15:37.282Z,6.44
2022-12-27T10:18:12.989Z,6.51
2022-12-27T10:20:54.662Z,6.64
2022-12-27T10:23:25.021Z,6.59
2022-12-27T10:25:56.279Z,6.70
2022-12-27T10:28:29.280Z,6.82
2022-12-27T10:30:57.396Z,6.81
2022-12-27T10:33:28.710Z,6.89
2022-12-27T10:35:58.136Z,6.81
2022-12-27T10:38:33.010Z,6.84
2022-12-27T10:41:15.029Z,6.93
2022-12-27T10:43:46.683Z,6.85
2022-12-27T10:46:16.934Z,6.79
2022-12-27T10:49:20.193Z,6.82
2022-12-27T10:51:45.331Z,6.74
2022-12-27T10:54:15.246Z,6.79
2022-12-27T10:56:44.195Z,6.82
2022-12-27T10:59:16.799Z,7.00
2022-12-27T11:01:45.836Z,6.98
2022-12-27T11:04:21.091Z,7.10
2022-12-27T11:06:51.398Z,7.20
2022-12-27T11:09:31.572Z,7.20
2022-12-27T11:12:19.007Z,7.34
2022-12-27T11:14:57.692Z,7.53
2022-12-27T11:17:28.111Z,7.40
2022-12-27T11:19:57.809Z,7.35
2022-12-27T11:22:26.509Z,7.43
2022-12-27T11:24:57.080Z,7.46
2022-12-27T11:27:26.772Z,7.62
2022-12-27T11:29:59.275Z,7.87
2022-12-27T11:32:27.448Z,8.24
2022-12-27T11:34:56.229Z,8.72
2022-12-27T11:37:25.741Z,9.25
2022-12-27T11:39:55.888Z,9.52
2022-12-27T11:42:39.367Z,10.33
2022-12-27T11:45:20.118Z,10.56
2022-12-27T11:47:51.256Z,11.14
2022-12-27T11:50:53.775Z,11.21
2022-12-27T11:53:55.826Z,11.89
2022-12-27T11:56:25.837Z,11.59
2022-12-27T11:59:04.374Z,12.13
2022-12-27T12:01:49.215Z,12.16
2022-12-27T12:04:37.397Z,13.09
2022-12-27T12:07:13.021Z,12.03
2022-12-27T12:09:57.719Z,12.52
2022-12-27T12:12:51.661Z,12.05
2022-12-27T12:15:34.599Z,10.99
2022-12-27T12:18:14.435Z,10.02
2022-12-27T12:21:13.619Z,9.40
2022-12-27T12:23:54.569Z,9.04
2022-12-27T12:26:23.088Z,8.97
2022-12-27T12:29:29.021Z,8.57
2022-12-27T12:32:34.678Z,8.81
2022-12-27T12:35:41.170Z,9.15
2022-12-27T12:38:19.734Z,9.77
2022-12-27T12:41:00.585Z,9.90
2022-12-27T12:43:46.382Z,10.36
2022-12-27T12:46:24.646Z,10.67
2022-12-27T12:49:26.313Z,9.97
2022-12-27T12:52:15.463Z,9.89
2022-12-27T12:55:05.057Z,9.50
2022-12-27T12:57:44.349Z,9.08
2022-12-27T13:00:42.386Z,9.15
2022-12-27T13:03:24.359Z,8.76
2022-12-27T13:05:54.895Z,8.89
2022-12-27T13:08:30.415Z,9.06
2022-12-27T13:11:07.976Z,9.01
2022-12-27T13:13:45.849Z,9.10
2022-12-27T13:16:21.592Z,9.47
2022-12-27T13:18:58.575Z,9.72
2022-12-27T13:21:36.642Z,9.87
2022-12-27T13:24:15.620Z,9.68
2022-12-27T13:26:49.761Z,10.04
2022-12-27T13:29:33.164Z,11.02
2022-12-27T13:32:07.787Z,11.57
2022-12-27T13:34:44.733Z,11.53
2022-12-27T13:37:20.938Z,12.15
2022-12-27T13:40:03.070Z,12.07
2022-12-27T13:42:45.354Z,12.32
2022-12-27T13:45:23.992Z,13.24
2022-12-27T13:47:59.555Z,13.45
2022-12-27T13:50:55.041Z,13.09
2022-12-27T13:53:59.304Z,12.02
2022-12-27T13:59:52.244Z,10.79
2022-12-27T14:02:34.614Z,10.76
2022-12-27T14:05:51.016Z,11.34
2022-12-27T14:08:28.229Z,13.13
2022-12-27T14:11:00.791Z,13.16
2022-12-27T14:13:34.451Z,13.58
2022-12-27T14:16:24.161Z,12.30
2022-12-27T14:19:03.203Z,12.87
2022-12-27T14:21:48.682Z,12.15
2022-12-27T14:24:33.165Z,11.83
2022-12-27T14:27:34.273Z,11.39
2022-12-27T14:30:46.166Z,11.06
2022-12-27T14:33:39.423Z,10.02
2022-12-27T14:36:35.130Z,9.74
2022-12-27T14:39:31.918Z,9.49
2022-12-27T14:42:20.037Z,9.52
2022-12-27T14:45:25.051Z,9.60
2022-12-27T14:48:11.365Z,9.16
2022-12-27T14:51:50.008Z,9.19
2022-12-27T14:54:25.010Z,9.39
2022-12-27T14:56:58.802Z,9.16
2022-12-27T14:59:37.200Z,9.32
2022-12-27T15:02:17.538Z,9.23
2022-12-27T15:05:05.146Z,9.32
2022-12-27T15:08:11.270Z,9.43
2022-12-27T15:10:53.233Z,9.61
2022-12-27T15:13:29.470Z,9.70
2022-12-27T15:16:03.338Z,9.62
2022-12-27T15:18:43.782Z,9.58
2022-12-27T15:21:25.163Z,9.42
2022-12-27T15:23:54.978Z,9.18
2022-12-27T15:26:30.111Z,8.65
2022-12-27T15:29:09.182Z,8.35
2022-12-27T15:31:45.073Z,8.13
2022-12-27T15:34:25.204Z,7.87
2022-12-27T15:36:55.058Z,7.62
2022-12-27T15:39:53.484Z,7.52
2022-12-27T15:42:37.260Z,7.38
2022-12-27T15:45:18.489Z,7.34
2022-12-27T15:48:09.649Z,7.23
2022-12-27T15:50:51.407Z,7.13
2022-12-27T15:53:32.817Z,6.90
2022-12-27T15:56:17.860Z,6.80
2022-12-27T15:58:46.611Z,6.78
2022-12-27T16:01:27.915Z,6.79
2022-12-27T16:03:58.723Z,6.88
2022-12-27T16:06:48.470Z,6.97
2022-12-27T16:09:33.762Z,7.05
2022-12-27T16:12:05.856Z,7.14
2022-12-27T16:14:38.200Z,7.29
2022-12-27T16:17:22.985Z,7.38
2022-12-27T16:20:14.951Z,7.41
2022-12-27T16:22:44.835Z,7.53
2022-12-27T16:25:30.567Z,7.55
2022-12-27T16:28:02.770Z,7.61
2022-12-27T16:30:43.088Z,7.56
2022-12-27T16:33:31.066Z,7.48
2022-12-27T16:36:14.006Z,7.50
2022-12-27T16:38:47.155Z,7.45
2022-12-27T16:41:21.267Z,7.44
2022-12-27T16:43:54.209Z,7.43
2022-12-27T16:46:34.015Z,7.36
2022-12-27T16:49:29.176Z,7.48
2022-12-27T16:52:09.058Z,7.40
2022-12-27T16:54:48.797Z,7.44
2022-12-27T16:57:42.034Z,7.30
2022-12-27T17:00:36.592Z,7.27
2022-12-27T17:03:45.118Z,7.24
2022-12-27T17:06:50.479Z,7.08
2022-12-27T17:09:41.603Z,6.99
2022-12-27T17:12:20.801Z,6.90
2022-12-27T17:14:53.885Z,7.03
2022-12-27T17:17:23.121Z,7.02
2022-12-27T17:19:57.047Z,7.04
2022-12-27T17:22:32.116Z,7.10
2022-12-27T17:25:03.585Z,7.04
2022-12-27T17:27:47.831Z,6.98
2022-12-27T17:30:20.579Z,6.93
2022-12-27T17:33:33.705Z,6.97
2022-12-27T17:36:31.700Z,6.90
2022-12-27T17:39:08.841Z,6.80
2022-12-27T17:42:04.751Z,6.68
2022-12-27T17:44:51.819Z,6.77
2022-12-27T17:47:37.004Z,6.78
2022-12-27T17:50:07.212Z,6.83
2022-12-27T17:52:53.165Z,6.76
2022-12-27T17:55:40.049Z,6.61
2022-12-27T17:58:10.904Z,6.52
2022-12-27T18:00:42.736Z,6.41
2022-12-27T18:03:13.869Z,6.30
2022-12-27T18:05:43.312Z,6.15
2022-12-27T18:08:20.351Z,6.24
2022-12-27T18:10:48.572Z,6.36
2022-12-27T18:13:18.908Z,6.38
2022-12-27T18:15:48.587Z,6.47
2022-12-27T18:18:20.678Z,6.45
2022-12-27T18:20:55.153Z,6.54
2022-12-27T18:23:23.555Z,6.51
2022-12-27T18:25:54.602Z,6.55
2022-12-27T18:28:30.412Z,6.64
2022-12-27T18:31:04.142Z,6.54
2022-12-27T18:33:36.080Z,6.55
2022-12-27T18:36:05.853Z,6.58
2022-12-27T18:38:36.427Z,6.40
2022-12-27T18:41:06.490Z,6.31
2022-12-27T18:43:36.017Z,6.27
2022-12-27T18:46:04.872Z,6.20
2022-12-27T18:48:36.459Z,6.23
2022-12-27T18:51:04.818Z,6.15
2022-12-27T18:53:36.830Z,6.00
2022-12-27T18:56:07.007Z,6.04
2022-12-27T18:58:35.431Z,6.03
2022-12-27T19:01:05.737Z,6.02
2022-12-27T19:03:40.370Z,6.02
2022-12-27T19:06:10.144Z,5.96
2022-12-27T19:08:39.970Z,6.01
2022-12-27T19:11:08.054Z,6.03
2022-12-27T19:13:43.317Z,5.84
2022-12-27T19:16:22.248Z,5.78
2022-12-27T19:18:53.761Z,5.75
2022-12-27T19:21:30.097Z,5.82
2022-12-27T19:23:58.468Z,5.85
2022-12-27T19:26:32.634Z,5.87
2022-12-27T19:29:04.171Z,5.99
2022-12-27T19:31:32.467Z,6.12
2022-12-27T19:34:03.694Z,6.14
2022-12-27T19:36:34.993Z,6.10
2022-12-27T19:39:03.323Z,6.09
2022-12-27T19:41:31.713Z,6.01
2022-12-27T19:44:00.033Z,6.00
2022-12-27T19:46:31.096Z,5.95
2022-12-27T19:51:48.976Z,5.91
2022-12-27T19:54:19.928Z,5.92
2022-12-27T19:56:48.369Z,5.89
2022-12-27T19:59:18.235Z,5.87
2022-12-27T20:01:46.437Z,5.93
2022-12-27T20:04:14.914Z,5.93
2022-12-27T20:06:43.565Z,5.89
2022-12-27T20:09:15.094Z,5.86
2022-12-27T20:11:43.123Z,5.94
2022-12-27T20:14:11.747Z,6.03
2022-12-27T20:16:40.227Z,5.91
2022-12-27T20:19:08.536Z,5.92
2022-12-27T20:21:36.464Z,5.99
2022-12-27T20:24:04.992Z,5.98
2022-12-27T20:26:34.329Z,5.94
2022-12-27T20:29:02.657Z,5.90
2022-12-27T20:31:30.639Z,5.91
2022-12-27T20:33:59.333Z,5.91
2022-12-27T20:36:27.286Z,5.86
2022-12-27T20:38:55.591Z,5.90
2022-12-27T20:41:24.125Z,5.85
2022-12-27T20:43:57.785Z,5.90
2022-12-27T20:46:26.279Z,5.87
2022-12-27T20:48:56.249Z,5.90
2022-12-27T20:51:27.131Z,5.93
2022-12-27T20:53:56.522Z,5.88
2022-12-27T20:56:24.695Z,5.76
2022-12-27T20:58:53.413Z,5.86
2022-12-27T21:01:24.259Z,5.80
2022-12-27T21:03:52.760Z,5.87
2022-12-27T21:06:22.528Z,5.88
2022-12-27T21:08:56.659Z,5.86
2022-12-27T21:11:27.731Z,5.86
2022-12-27T21:13:56.261Z,5.88
2022-12-27T21:16:27.476Z,5.86
2022-12-27T21:18:56.885Z,5.77
2022-12-27T21:21:28.243Z,5.67
2022-12-27T21:23:57.356Z,5.54
2022-12-27T21:26:27.494Z,5.45
2022-12-27T21:28:56.103Z,5.41
2022-12-27T21:31:25.564Z,5.54
2022-12-27T21:33:53.984Z,5.53
2022-12-27T21:36:24.416Z,5.61
2022-12-27T21:38:52.717Z,5.71
2022-12-27T21:41:22.215Z,5.92
2022-12-27T21:43:51.260Z,5.94
2022-12-27T21:46:21.957Z,5.87
2022-12-27T21:48:55.811Z,5.81
2022-12-27T21:51:23.841Z,5.79
2022-12-27T21:53:52.247Z,5.79
2022-12-27T21:56:20.395Z,5.74
2022-12-27T21:58:49.086Z,5.64
2022-12-27T22:01:19.173Z,5.55
2022-12-27T22:03:48.687Z,5.53
2022-12-27T22:06:19.186Z,5.61
2022-12-27T22:08:49.272Z,5.55
2022-12-27T22:11:18.359Z,5.59
2022-12-27T22:13:47.127Z,5.57
2022-12-27T22:16:17.365Z,5.58
2022-12-27T22:18:46.194Z,5.49
2022-12-27T22:21:21.145Z,5.34
2022-12-27T22:23:52.621Z,5.32
2022-12-27T22:26:23.056Z,5.38
2022-12-27T22:28:52.412Z,5.47
2022-12-27T22:31:22.601Z,5.46
2022-12-27T22:33:51.998Z,5.42
2022-12-27T22:36:23.728Z,5.37
2022-12-27T22:38:53.628Z,5.41
2022-12-27T22:41:25.232Z,5.43
2022-12-27T22:43:55.027Z,5.55
2022-12-27T22:46:23.877Z,5.49
2022-12-27T22:48:52.677Z,5.31
2022-12-27T22:51:24.409Z,5.30
2022-12-27T22:53:52.989Z,5.29
2022-12-27T22:56:22.902Z,5.26
2022-12-27T22:58:51.048Z,5.22
2022-12-27T23:01:20.754Z,5.21
2022-12-27T23:03:49.795Z,5.14
2022-12-27T23:06:17.941Z,4.94
2022-12-27T23:08:47.896Z,4.97
2022-12-27T23:11:17.719Z,4.91
2022-12-27T23:13:46.377Z,4.81
2022-12-27T23:16:14.439Z,4.81
2022-12-27T23:18:42.748Z,4.98
2022-12-27T23:21:19.988Z,4.97
2022-12-27T23:23:53.661Z,4.95
2022-12-27T23:26:23.048Z,5.10
2022-12-27T23:28:52.797Z,4.96
2022-12-27T23:31:22.449Z,4.91
2022-12-27T23:33:50.755Z,4.89
2022-12-27T23:36:19.605Z,4.89
2022-12-27T23:38:48.490Z,4.84
2022-12-27T23:41:19.656Z,5.02
2022-12-27T23:43:53.796Z,5.09
2022-12-27T23:46:25.644Z,5.13
2022-12-27T23:48:54.331Z,5.21
2022-12-27T23:51:23.053Z,5.14
2022-12-27T23:53:51.626Z,5.24
2022-12-27T23:56:22.809Z,5.13
2022-12-27T23:58:52.704Z,5.16
